Delphos, OH (45833)

6:37 AM EST on December 03, 2016 (GMT -0500)
Delphos | | Change Station

Elev 764 ft 40.85 °N, 84.35 °W | Updated 29 seconds ago

Overcast
Overcast
35.1 °F
Feels Like 32 °F
N
4.0
Wind Variable Wind from WSW

Today
High -- | Low -- °F
--% Chance of Precip.
Yesterday
High -- | Low -- °F
Precip. -- in
Pressure 30.32 in
Visibility 10.0 miles
Clouds Overcast 3900 ft
Windchill 32 °F
Dew Point 29 °F
Humidity 80%
Rainfall 0.00 in
Snow Depth Not available.
7:44 AM 5:09 PM
Waxing Crescent, 14% visible
METAR KAOH 031053Z AUTO 29006KT 10SM OVC039 02/M02 A3030 RMK AO2 SLP268 T00171017
Pressure 30.32 in
Visibility 10.0 miles
Clouds Overcast 3900 ft
Windchill 32 °F
Dew Point 29 °F
Humidity 80%
Rainfall 0.00 in
Snow Depth Not available.
7:44 AM 5:09 PM
Waxing Crescent, 14% visible
METAR KAOH 031053Z AUTO 29006KT 10SM OVC039 02/M02 A3030 RMK AO2 SLP268 T00171017

10-Day Weather Forecast

Almanac

Astronomy

Dec. 03, 2016 Rise Set
Actual Time
Civil Twilight
Nautical Twilight
Astronomical Twilight
Moon
Length of Visible Light
Length of Day
Tomorrow will be .
, % of the Moon is Illuminated

Today's Extremes

State Highs State Lows

Community

WunderPhotos

Upload Photos

1,955,431 photos uploaded!

WunderBlog® & News

Nearby

Air Quality

  Air Quality AQ Index Pollutant
Not available.

Snow Depth

Station Depth Elevation

Earthquake Activity

City Distance Mag. Time & Date
Minimum magnitude displayed is 2.5.

Coastal Water Temperatures

Place Temperature

Stations

Nearby Weather Stations

Station Location Temp. Windchill Dew Point Humidity Wind Precip. Elev Updated Type
                   

Watches & Warnings

There are currently no watches in effect.